TAF Text Data
IDs:
Format:
Raw Decoded Include METAR

Data at: 1534 UTC 04 Aug 2021

KMKT 041122Z 0412/0512 18005KT P6SM FEW250
  FM041600 20010G16KT P6SM SCT050 BKN250
  FM050100 18009KT P6SM BKN080
  PROB30 0510/0512 4SM TSRA OVC050CB